createdAt,value
2022-11-15T00:01:18.947Z,89.10
2022-11-15T00:03:47.442Z,89.30
2022-11-15T00:06:14.208Z,89.20
2022-11-15T00:08:41.217Z,89.20
2022-11-15T00:11:10.719Z,89.00
2022-11-15T00:13:38.570Z,88.90
2022-11-15T00:16:06.599Z,88.90
2022-11-15T00:18:35.754Z,88.90
2022-11-15T00:21:20.577Z,89.00
2022-11-15T00:23:48.680Z,89.60
2022-11-15T00:26:16.457Z,89.50
2022-11-15T00:28:43.622Z,89.70
2022-11-15T00:31:16.407Z,89.60
2022-11-15T00:33:51.999Z,89.80
2022-11-15T00:36:18.671Z,89.40
2022-11-15T00:38:45.361Z,89.50
2022-11-15T00:41:13.777Z,89.40
2022-11-15T00:43:41.161Z,89.50
2022-11-15T00:46:09.606Z,89.70
2022-11-15T00:48:37.194Z,89.50
2022-11-15T00:51:04.061Z,89.90
2022-11-15T00:53:31.279Z,89.60
2022-11-15T00:55:59.325Z,89.50
2022-11-15T00:58:27.122Z,89.40
2022-11-15T01:00:54.064Z,89.40
2022-11-15T01:03:27.053Z,89.50
2022-11-15T01:05:55.113Z,89.70
2022-11-15T01:08:24.540Z,89.90
2022-11-15T01:10:51.454Z,90.10
2022-11-15T01:13:19.203Z,90.40
2022-11-15T01:15:46.216Z,90.40
2022-11-15T01:18:15.292Z,90.20
2022-11-15T01:20:43.411Z,90.30
2022-11-15T01:23:10.380Z,90.20
2022-11-15T01:25:37.188Z,90.40
2022-11-15T01:28:03.989Z,90.40
2022-11-15T01:30:30.860Z,90.30
2022-11-15T01:32:57.563Z,90.30
2022-11-15T01:35:24.549Z,90.20
2022-11-15T01:37:51.272Z,90.30
2022-11-15T01:40:19.527Z,90.20
2022-11-15T01:42:46.210Z,90.10
2022-11-15T01:45:19.967Z,90.40
2022-11-15T01:47:52.544Z,90.30
2022-11-15T01:50:24.812Z,90.20
2022-11-15T01:52:51.525Z,90.00
2022-11-15T01:55:28.411Z,89.90
2022-11-15T01:57:59.984Z,90.20
2022-11-15T02:00:29.116Z,90.30
2022-11-15T02:02:56.202Z,90.40
2022-11-15T02:05:26.204Z,90.10
2022-11-15T02:07:54.668Z,90.60
2022-11-15T02:10:24.436Z,90.50
2022-11-15T02:12:55.484Z,90.20
2022-11-15T02:15:24.180Z,90.10
2022-11-15T02:18:25.137Z,90.00
2022-11-15T02:21:07.722Z,90.00
2022-11-15T02:23:49.463Z,90.10
2022-11-15T02:26:40.318Z,90.10
2022-11-15T02:29:14.699Z,89.90
2022-11-15T02:31:56.955Z,90.00
2022-11-15T02:34:47.933Z,90.30
2022-11-15T02:37:31.452Z,90.40
2022-11-15T02:40:08.047Z,90.30
2022-11-15T02:43:02.104Z,90.30
2022-11-15T02:45:37.989Z,90.00
2022-11-15T02:48:06.618Z,90.10
2022-11-15T02:50:34.211Z,90.30
2022-11-15T02:53:01.008Z,90.60
2022-11-15T02:55:33.350Z,90.40
2022-11-15T02:58:18.172Z,90.30
2022-11-15T03:01:23.219Z,90.20
2022-11-15T03:04:05.258Z,90.50
2022-11-15T03:06:58.555Z,90.50
2022-11-15T03:09:57.422Z,90.50
2022-11-15T03:12:36.962Z,90.80
2022-11-15T03:15:15.317Z,90.60
2022-11-15T03:17:44.618Z,90.50
2022-11-15T03:20:14.737Z,90.70
2022-11-15T03:22:45.994Z,90.70
2022-11-15T03:25:18.472Z,90.80
2022-11-15T03:27:50.593Z,90.70
2022-11-15T03:30:18.015Z,90.80
2022-11-15T03:32:57.925Z,90.70
2022-11-15T03:35:39.854Z,90.60
2022-11-15T03:38:22.476Z,90.90
2022-11-15T03:40:56.744Z,90.70
2022-11-15T03:43:47.940Z,90.80
2022-11-15T03:46:37.027Z,90.80
2022-11-15T03:49:10.500Z,90.80
2022-11-15T03:51:37.439Z,90.70
2022-11-15T03:54:05.740Z,90.80
2022-11-15T03:56:32.671Z,90.80
2022-11-15T03:58:59.347Z,90.80
2022-11-15T04:01:30.448Z,91.00
2022-11-15T04:03:57.272Z,90.90
2022-11-15T04:06:24.967Z,91.00
2022-11-15T04:08:51.537Z,91.00
2022-11-15T04:11:20.351Z,91.10
2022-11-15T04:13:47.006Z,91.20
2022-11-15T04:16:13.640Z,90.80
2022-11-15T04:18:40.285Z,90.80
2022-11-15T04:21:25.468Z,90.60
2022-11-15T04:24:13.150Z,90.60
2022-11-15T04:26:39.894Z,90.50
2022-11-15T04:29:25.194Z,90.90
2022-11-15T04:31:51.852Z,90.90
2022-11-15T04:34:18.544Z,90.90
2022-11-15T04:37:03.692Z,90.60
2022-11-15T04:39:30.348Z,90.40
2022-11-15T04:41:57.789Z,90.50
2022-11-15T04:44:24.463Z,90.50
2022-11-15T04:46:51.176Z,90.50
2022-11-15T04:49:17.838Z,90.90
2022-11-15T04:51:44.793Z,91.10
2022-11-15T04:54:11.458Z,90.90
2022-11-15T04:56:38.169Z,90.90
2022-11-15T04:59:04.905Z,90.80
2022-11-15T05:01:34.173Z,91.30
2022-11-15T05:04:20.056Z,91.00
2022-11-15T05:06:51.804Z,90.90
2022-11-15T05:09:20.268Z,90.70
2022-11-15T05:11:47.792Z,90.60
2022-11-15T05:14:15.001Z,90.60
2022-11-15T05:16:44.330Z,90.60
2022-11-15T05:19:11.249Z,90.40
2022-11-15T05:21:41.449Z,90.50
2022-11-15T05:24:12.081Z,90.60
2022-11-15T05:26:38.844Z,90.50
2022-11-15T05:29:05.625Z,90.60
2022-11-15T05:31:32.320Z,90.70
2022-11-15T05:34:00.966Z,90.70
2022-11-15T05:36:38.861Z,90.70
2022-11-15T05:39:09.220Z,90.80
2022-11-15T05:41:44.840Z,91.00
2022-11-15T05:44:16.938Z,90.70
2022-11-15T05:46:43.982Z,90.60
2022-11-15T05:49:14.367Z,90.70
2022-11-15T05:51:44.567Z,90.80
2022-11-15T05:54:12.100Z,90.80
2022-11-15T05:56:39.106Z,90.60
2022-11-15T05:59:08.235Z,90.60
2022-11-15T06:01:36.347Z,90.50
2022-11-15T06:04:03.112Z,90.80
2022-11-15T06:06:35.753Z,90.70
2022-11-15T06:09:06.083Z,90.80
2022-11-15T06:11:32.755Z,90.90
2022-11-15T06:13:59.594Z,90.70
2022-11-15T06:16:28.247Z,90.70
2022-11-15T06:18:58.095Z,90.70
2022-11-15T06:21:28.853Z,90.70
2022-11-15T06:23:55.777Z,90.70
2022-11-15T06:26:22.519Z,90.70
2022-11-15T06:28:49.252Z,90.80
2022-11-15T06:31:17.099Z,90.80
2022-11-15T06:33:43.861Z,90.90
2022-11-15T06:36:17.855Z,90.90
2022-11-15T06:38:46.557Z,90.90
2022-11-15T06:41:14.930Z,91.00
2022-11-15T06:43:42.065Z,91.10
2022-11-15T06:46:09.422Z,91.30
2022-11-15T06:48:37.349Z,91.40
2022-11-15T06:51:09.275Z,91.20
2022-11-15T06:53:36.130Z,91.30
2022-11-15T06:56:04.823Z,91.50
2022-11-15T06:58:31.931Z,91.60
2022-11-15T07:01:10.632Z,91.50
2022-11-15T07:03:39.665Z,91.70
2022-11-15T07:06:07.944Z,91.80
2022-11-15T07:08:35.294Z,92.00
2022-11-15T07:11:13.314Z,92.10
2022-11-15T07:13:40.236Z,92.20
2022-11-15T07:16:09.702Z,92.20
2022-11-15T07:18:38.246Z,92.30
2022-11-15T07:21:08.808Z,92.30
2022-11-15T07:23:39.137Z,92.30
2022-11-15T07:26:08.511Z,92.30
2022-11-15T07:28:36.296Z,92.40
2022-11-15T07:31:05.064Z,92.50
2022-11-15T07:33:32.437Z,92.60
2022-11-15T07:36:00.025Z,92.60
2022-11-15T07:38:32.070Z,92.60
2022-11-15T07:41:02.438Z,92.80
2022-11-15T07:43:33.812Z,92.80
2022-11-15T07:46:06.728Z,92.90
2022-11-15T07:48:44.000Z,92.90
2022-11-15T07:51:14.360Z,93.00
2022-11-15T07:53:42.116Z,93.10
2022-11-15T07:56:09.219Z,93.10
2022-11-15T07:58:36.970Z,93.10
2022-11-15T08:01:06.486Z,93.20
2022-11-15T08:03:34.625Z,93.30
2022-11-15T08:06:02.333Z,93.30
2022-11-15T08:08:29.331Z,93.40
2022-11-15T08:10:58.074Z,93.50
2022-11-15T08:13:24.958Z,93.60
2022-11-15T08:15:57.402Z,93.70
2022-11-15T08:18:24.866Z,93.80
2022-11-15T08:20:51.597Z,93.90
2022-11-15T08:23:18.403Z,94.00
2022-11-15T08:25:46.854Z,94.20
2022-11-15T08:28:13.944Z,94.30
2022-11-15T08:30:43.707Z,94.40
2022-11-15T08:33:15.261Z,94.50
2022-11-15T08:35:43.313Z,94.60
2022-11-15T08:38:10.484Z,94.80
2022-11-15T08:40:37.962Z,94.80
2022-11-15T08:43:05.353Z,94.90
2022-11-15T08:45:32.921Z,94.90
2022-11-15T08:48:03.386Z,94.90
2022-11-15T08:50:30.258Z,94.90
2022-11-15T08:52:59.574Z,94.90
2022-11-15T08:55:26.342Z,94.90
2022-11-15T08:58:00.521Z,94.90
2022-11-15T09:00:27.301Z,95.00
2022-11-15T09:02:54.399Z,95.10
2022-11-15T09:05:21.187Z,95.10
2022-11-15T09:07:49.298Z,94.90
2022-11-15T09:10:16.544Z,94.80
2022-11-15T09:12:44.160Z,94.60
2022-11-15T09:15:11.177Z,94.70
2022-11-15T09:17:37.882Z,94.30
2022-11-15T09:20:05.578Z,94.00
2022-11-15T09:22:33.229Z,94.20
2022-11-15T09:25:01.462Z,94.20
2022-11-15T09:27:31.952Z,94.10
2022-11-15T09:29:58.877Z,94.00
2022-11-15T09:32:36.303Z,94.00
2022-11-15T09:35:05.989Z,94.00
2022-11-15T09:37:34.825Z,94.20
2022-11-15T09:40:01.849Z,94.20
2022-11-15T09:42:40.474Z,94.00
2022-11-15T09:45:28.963Z,93.80
2022-11-15T09:48:10.828Z,93.70
2022-11-15T09:50:48.237Z,93.60
2022-11-15T09:54:24.172Z,93.50
2022-11-15T09:56:32.105Z,93.30
2022-11-15T09:58:58.751Z,93.00
2022-11-15T10:01:49.984Z,92.90
2022-11-15T10:04:17.143Z,92.60
2022-11-15T10:07:03.259Z,93.00
2022-11-15T10:09:48.670Z,93.10
2022-11-15T10:12:16.610Z,92.80
2022-11-15T10:14:43.777Z,93.00
2022-11-15T10:17:51.674Z,91.80
2022-11-15T10:20:25.646Z,90.40
2022-11-15T10:22:56.291Z,89.00
2022-11-15T10:25:33.841Z,89.00
2022-11-15T10:28:16.385Z,88.50
2022-11-15T10:30:48.807Z,87.90
2022-11-15T10:33:36.603Z,88.00
2022-11-15T10:36:26.136Z,86.80
2022-11-15T10:38:59.153Z,86.30
2022-11-15T10:41:28.974Z,84.80
2022-11-15T10:44:08.035Z,83.90
2022-11-15T10:46:51.960Z,83.40
2022-11-15T10:49:25.335Z,84.10
2022-11-15T10:52:05.269Z,83.30
2022-11-15T10:54:41.198Z,82.70
2022-11-15T10:57:15.846Z,82.30
2022-11-15T10:59:57.328Z,82.90
2022-11-15T11:02:38.041Z,81.60
2022-11-15T11:05:25.627Z,81.30
2022-11-15T11:08:05.372Z,80.90
2022-11-15T11:10:50.879Z,79.70
2022-11-15T11:13:29.288Z,79.60
2022-11-15T11:16:08.016Z,78.20
2022-11-15T11:18:44.942Z,78.10
2022-11-15T11:21:19.583Z,78.30
2022-11-15T11:23:57.895Z,78.10
2022-11-15T11:26:47.071Z,77.60
2022-11-15T11:29:23.890Z,77.10
2022-11-15T11:32:12.789Z,77.00
2022-11-15T11:34:52.286Z,76.50
2022-11-15T11:37:23.038Z,76.40
2022-11-15T11:40:14.457Z,76.20
2022-11-15T11:43:00.216Z,76.10
2022-11-15T11:45:54.758Z,76.00
2022-11-15T11:48:45.568Z,75.60
2022-11-15T11:51:18.185Z,75.30
2022-11-15T11:54:13.561Z,73.90
2022-11-15T11:56:44.223Z,73.80
2022-11-15T11:59:20.200Z,73.50
2022-11-15T12:01:47.214Z,73.70
2022-11-15T12:04:39.156Z,72.90
2022-11-15T12:07:16.608Z,72.80
2022-11-15T12:10:00.667Z,72.00
2022-11-15T12:12:40.300Z,72.20
2022-11-15T12:15:10.151Z,71.40
2022-11-15T12:17:46.587Z,72.30
2022-11-15T12:20:22.643Z,73.10
2022-11-15T12:22:59.093Z,71.50
2022-11-15T12:25:47.823Z,71.40
2022-11-15T12:28:58.651Z,71.80
2022-11-15T12:31:40.900Z,71.70
2022-11-15T12:34:23.016Z,70.20
2022-11-15T12:36:51.905Z,69.10
2022-11-15T12:39:19.880Z,69.50
2022-11-15T12:41:55.864Z,69.50
2022-11-15T12:44:48.636Z,69.30
2022-11-15T12:47:26.841Z,69.10
2022-11-15T12:49:54.557Z,69.30
2022-11-15T12:52:21.484Z,69.00
2022-11-15T12:54:56.976Z,69.60
2022-11-15T12:57:34.182Z,70.00
2022-11-15T13:00:25.468Z,70.60
2022-11-15T13:03:24.416Z,70.20
2022-11-15T13:05:59.248Z,70.20
2022-11-15T13:08:48.657Z,69.70
2022-11-15T13:11:45.146Z,69.40
2022-11-15T13:14:46.189Z,69.20
2022-11-15T13:17:28.929Z,69.60
2022-11-15T13:20:17.006Z,69.40
2022-11-15T13:23:03.874Z,69.40
2022-11-15T13:25:48.978Z,70.10
2022-11-15T13:28:18.584Z,70.30
2022-11-15T13:30:48.368Z,69.80
2022-11-15T13:33:22.073Z,69.60
2022-11-15T13:35:56.380Z,69.20
2022-11-15T13:38:26.742Z,69.00
2022-11-15T13:40:54.151Z,68.90
2022-11-15T13:43:28.650Z,69.60
2022-11-15T13:46:31.052Z,69.60
2022-11-15T13:49:03.494Z,69.60
2022-11-15T13:51:55.792Z,69.90
2022-11-15T13:55:09.744Z,69.60
2022-11-15T13:57:50.383Z,69.40
2022-11-15T14:00:35.369Z,69.40
2022-11-15T14:03:19.998Z,69.50
2022-11-15T14:06:14.554Z,70.40
2022-11-15T14:08:42.956Z,70.70
2022-11-15T14:11:18.377Z,70.20
2022-11-15T14:14:03.873Z,70.80
2022-11-15T14:16:39.797Z,71.30
2022-11-15T14:19:33.738Z,71.50
2022-11-15T14:22:22.075Z,71.80
2022-11-15T14:25:08.437Z,71.90
2022-11-15T14:27:35.591Z,71.60
2022-11-15T14:30:02.780Z,72.10
2022-11-15T14:32:38.424Z,72.60
2022-11-15T14:35:14.045Z,73.10
2022-11-15T14:37:41.809Z,73.20
2022-11-15T14:40:11.012Z,73.40
2022-11-15T14:42:37.711Z,73.70
2022-11-15T14:45:09.818Z,73.70
2022-11-15T14:47:36.702Z,74.00
2022-11-15T14:50:05.311Z,74.10
2022-11-15T14:52:36.522Z,74.60
2022-11-15T14:55:12.798Z,74.80
2022-11-15T14:57:39.575Z,74.90
2022-11-15T15:00:07.481Z,75.30
2022-11-15T15:02:34.264Z,75.40
2022-11-15T15:05:04.035Z,75.70
2022-11-15T15:07:30.929Z,76.50
2022-11-15T15:10:24.899Z,76.50
2022-11-15T15:12:47.156Z,76.70
2022-11-15T15:15:17.166Z,77.10
2022-11-15T15:17:45.220Z,77.50
2022-11-15T15:20:14.582Z,77.90
2022-11-15T15:22:41.478Z,78.50
2022-11-15T15:25:22.286Z,79.40
2022-11-15T15:27:50.954Z,79.40
2022-11-15T15:30:18.280Z,80.10
2022-11-15T15:32:47.571Z,80.00
2022-11-15T15:35:15.619Z,80.00
2022-11-15T15:37:48.142Z,80.50
2022-11-15T15:40:16.878Z,80.20
2022-11-15T15:42:44.503Z,80.40
2022-11-15T15:45:12.451Z,80.50
2022-11-15T15:47:39.842Z,81.00
2022-11-15T15:50:24.708Z,81.10
2022-11-15T15:52:53.002Z,81.70
2022-11-15T15:55:20.830Z,81.60
2022-11-15T15:57:48.321Z,81.90
2022-11-15T16:00:17.996Z,81.80
2022-11-15T16:02:45.423Z,82.60
2022-11-15T16:05:13.815Z,82.90
2022-11-15T16:07:41.536Z,83.30
2022-11-15T16:10:17.395Z,82.80
2022-11-15T16:12:44.157Z,82.90
2022-11-15T16:15:11.067Z,83.60
2022-11-15T16:17:51.354Z,83.40
2022-11-15T16:20:31.351Z,83.60
2022-11-15T16:22:58.531Z,83.90
2022-11-15T16:25:26.112Z,83.80
2022-11-15T16:27:53.064Z,83.90
2022-11-15T16:30:22.011Z,83.90
2022-11-15T16:32:49.053Z,83.60
2022-11-15T16:35:17.909Z,83.80
2022-11-15T16:37:47.075Z,84.00
2022-11-15T16:40:27.831Z,84.20
2022-11-15T16:42:56.892Z,84.20
2022-11-15T16:45:24.605Z,84.40
2022-11-15T16:47:52.416Z,84.30
2022-11-15T16:50:31.299Z,84.40
2022-11-15T16:53:00.845Z,84.70
2022-11-15T16:55:29.495Z,84.80
2022-11-15T16:57:58.123Z,84.80
2022-11-15T17:00:26.595Z,84.80
2022-11-15T17:02:54.202Z,85.00
2022-11-15T17:05:23.165Z,84.90
2022-11-15T17:07:54.830Z,84.60
2022-11-15T17:10:24.621Z,84.60
2022-11-15T17:12:52.668Z,84.70
2022-11-15T17:15:19.961Z,84.90
2022-11-15T17:17:55.145Z,84.70
2022-11-15T17:20:24.371Z,85.20
2022-11-15T17:22:53.064Z,85.20
2022-11-15T17:25:20.503Z,85.20
2022-11-15T17:27:47.486Z,85.60
2022-11-15T17:30:15.570Z,85.80
2022-11-15T17:32:43.589Z,85.60
2022-11-15T17:35:15.520Z,85.70
2022-11-15T17:37:43.425Z,85.60
2022-11-15T17:40:10.775Z,85.70
2022-11-15T17:42:37.514Z,85.30
2022-11-15T17:45:20.720Z,85.50
2022-11-15T17:47:47.458Z,85.60
2022-11-15T17:50:14.568Z,85.80
2022-11-15T17:52:43.427Z,86.40
2022-11-15T17:55:11.254Z,86.20
2022-11-15T17:57:38.773Z,86.40
2022-11-15T18:00:09.689Z,86.10
2022-11-15T18:02:38.024Z,86.10
2022-11-15T18:05:05.242Z,86.10
2022-11-15T18:07:33.291Z,86.40
2022-11-15T18:10:01.168Z,86.70
2022-11-15T18:12:29.084Z,86.30
2022-11-15T18:14:56.009Z,86.10
2022-11-15T18:17:24.017Z,86.30
2022-11-15T18:19:51.787Z,86.20
2022-11-15T18:22:19.584Z,86.70
2022-11-15T18:24:47.208Z,86.60
2022-11-15T18:27:16.854Z,86.80
2022-11-15T18:29:44.891Z,86.80
2022-11-15T18:32:14.812Z,86.70
2022-11-15T18:34:41.776Z,86.50
2022-11-15T18:37:10.760Z,86.40
2022-11-15T18:39:38.040Z,86.30
2022-11-15T18:42:06.041Z,86.50
2022-11-15T18:44:34.929Z,86.60
2022-11-15T18:47:01.989Z,86.30
2022-11-15T18:49:28.802Z,86.50
2022-11-15T18:51:58.729Z,86.40
2022-11-15T18:54:30.688Z,86.50
2022-11-15T18:56:57.920Z,86.50
2022-11-15T18:59:26.048Z,86.70
2022-11-15T19:01:53.858Z,86.70
2022-11-15T19:04:29.417Z,86.90
2022-11-15T19:06:56.314Z,87.20
2022-11-15T19:09:27.331Z,87.40
2022-11-15T19:11:54.054Z,87.60
2022-11-15T19:14:24.406Z,87.70
2022-11-15T19:16:52.686Z,87.80
2022-11-15T19:19:28.216Z,88.20
2022-11-15T19:21:57.603Z,88.20
2022-11-15T19:24:27.347Z,88.50
2022-11-15T19:26:54.955Z,88.50
2022-11-15T19:29:21.928Z,88.10
2022-11-15T19:31:50.746Z,88.30
2022-11-15T19:34:18.581Z,88.30
2022-11-15T19:36:45.621Z,88.40
2022-11-15T19:39:14.651Z,88.30
2022-11-15T19:41:44.243Z,88.50
2022-11-15T19:44:13.160Z,88.60
2022-11-15T19:46:41.790Z,89.20
2022-11-15T19:49:11.585Z,89.20
2022-11-15T19:51:41.468Z,89.10
2022-11-15T19:54:09.841Z,89.00
2022-11-15T19:56:39.962Z,89.30
2022-11-15T19:59:07.480Z,89.50
2022-11-15T20:01:39.446Z,89.40
2022-11-15T20:04:07.825Z,89.30
2022-11-15T20:06:38.436Z,89.70
2022-11-15T20:09:13.663Z,89.60
2022-11-15T20:11:41.744Z,89.80
2022-11-15T20:14:19.967Z,90.10
2022-11-15T20:16:51.440Z,89.70
2022-11-15T20:19:22.470Z,89.60
2022-11-15T20:21:49.737Z,89.40
2022-11-15T20:24:16.483Z,89.30
2022-11-15T20:26:46.363Z,89.30
2022-11-15T20:29:15.642Z,89.60
2022-11-15T20:31:43.426Z,90.00
2022-11-15T20:34:10.196Z,89.70
2022-11-15T20:36:36.905Z,89.70
2022-11-15T20:39:03.679Z,89.60
2022-11-15T20:41:30.828Z,90.10
2022-11-15T20:43:57.680Z,90.30
2022-11-15T20:46:24.453Z,90.80
2022-11-15T20:48:54.791Z,91.40
2022-11-15T20:51:22.856Z,91.50
2022-11-15T20:53:50.056Z,91.80
2022-11-15T20:56:20.418Z,91.80
2022-11-15T20:58:48.323Z,91.80
2022-11-15T21:01:17.752Z,91.60
2022-11-15T21:03:44.709Z,91.50
2022-11-15T21:06:13.603Z,91.50
2022-11-15T21:08:59.353Z,91.30
2022-11-15T21:11:44.689Z,91.20
2022-11-15T21:14:11.599Z,90.90
2022-11-15T21:16:39.035Z,90.60
2022-11-15T21:19:06.689Z,90.50
2022-11-15T21:21:35.281Z,90.60
2022-11-15T21:24:06.415Z,90.70
2022-11-15T21:26:33.672Z,90.60
2022-11-15T21:29:07.330Z,90.60
2022-11-15T21:31:34.556Z,90.70
2022-11-15T21:34:09.695Z,90.80
2022-11-15T21:36:36.453Z,90.90
2022-11-15T21:39:04.937Z,90.90
2022-11-15T21:41:31.710Z,90.90
2022-11-15T21:43:59.766Z,91.10
2022-11-15T21:46:27.882Z,91.10
2022-11-15T21:48:55.153Z,91.10
2022-11-15T21:51:22.899Z,91.10
2022-11-15T21:53:49.911Z,91.20
2022-11-15T21:56:19.034Z,91.20
2022-11-15T21:58:45.830Z,91.30
2022-11-15T22:01:33.958Z,91.40
2022-11-15T22:04:00.821Z,91.40
2022-11-15T22:06:27.614Z,91.40
2022-11-15T22:08:54.444Z,91.50
2022-11-15T22:11:23.826Z,91.40
2022-11-15T22:13:52.024Z,91.50
2022-11-15T22:16:21.125Z,91.50
2022-11-15T22:18:47.904Z,91.50
2022-11-15T22:21:16.609Z,91.60
2022-11-15T22:23:43.928Z,91.60
2022-11-15T22:26:19.401Z,91.60
2022-11-15T22:28:50.198Z,91.60
2022-11-15T22:31:17.049Z,91.60
2022-11-15T22:33:44.931Z,91.60
2022-11-15T22:36:12.619Z,91.60
2022-11-15T22:38:40.332Z,91.60
2022-11-15T22:41:07.137Z,91.60
2022-11-15T22:43:36.996Z,91.50
2022-11-15T22:46:05.414Z,91.60
2022-11-15T22:48:35.253Z,91.50
2022-11-15T22:51:02.788Z,91.50
2022-11-15T22:53:37.273Z,91.50
2022-11-15T22:56:06.074Z,91.40
2022-11-15T22:58:34.154Z,91.50
2022-11-15T23:01:03.080Z,91.50
2022-11-15T23:03:33.422Z,91.60
2022-11-15T23:06:05.843Z,91.60
2022-11-15T23:08:37.086Z,91.60
2022-11-15T23:11:23.943Z,91.60
2022-11-15T23:13:52.176Z,91.50
2022-11-15T23:16:25.486Z,91.60
2022-11-15T23:18:56.072Z,91.70
2022-11-15T23:21:53.629Z,91.60
2022-11-15T23:24:21.555Z,91.60
2022-11-15T23:26:53.517Z,91.60
2022-11-15T23:29:24.855Z,91.50
2022-11-15T23:32:15.146Z,91.60
2022-11-15T23:34:44.633Z,91.60
2022-11-15T23:37:14.381Z,91.70
2022-11-15T23:39:41.163Z,91.60
2022-11-15T23:42:09.591Z,91.60
2022-11-15T23:44:36.959Z,91.60
2022-11-15T23:47:04.005Z,91.60
2022-11-15T23:49:30.781Z,91.60
2022-11-15T23:51:57.663Z,91.70
2022-11-15T23:54:26.402Z,91.70
2022-11-15T23:56:53.190Z,91.60
2022-11-15T23:59:19.951Z,91.50
